Time;durP1;ratioP1;P1;durP2;ratioP2;P2;SDS_P1;SDS_P2;PMS_P1;PMS_P2;Temp;Humidity;BMP_temperature;BMP_pressure;BME280_temperature;BME280_humidity;BME280_pressure;Samples;Min_cycle;Max_cycle;Signal;HPM_P1;HPM_P2
2023/03/07 00:01:22;;;;;;;0.50;0.50;;;;;;;0.98;100.00;99859.38;4977668;28;20041;-78
2023/03/07 00:03:49;;;;;;;0.50;0.50;;;;;;;0.95;100.00;99851.66;4961574;28;20035;-79
2023/03/07 00:06:14;;;;;;;0.50;0.50;;;;;;;0.94;100.00;99855.31;4961859;28;20069;-78
2023/03/07 00:08:43;;;;;;;0.47;0.47;;;;;;;0.94;100.00;99854.47;4961428;28;20057;-79
2023/03/07 00:11:16;;;;;;;0.40;0.40;;;;;;;0.92;100.00;99861.69;4961686;28;20062;-79
2023/03/07 00:13:42;;;;;;;0.70;0.70;;;;;;;0.90;100.00;99866.28;4977667;28;20077;-78
2023/03/07 00:16:13;;;;;;;0.50;0.50;;;;;;;0.84;100.00;99863.22;4977677;28;20069;-79
2023/03/07 00:18:40;;;;;;;0.50;0.50;;;;;;;0.88;100.00;99856.69;4993411;28;20038;-79
2023/03/07 00:21:08;;;;;;;0.50;0.50;;;;;;;0.86;100.00;99855.97;4977616;28;20062;-79
2023/03/07 00:23:34;;;;;;;0.50;0.50;;;;;;;0.87;100.00;99859.44;4961083;28;20473;-79
2023/03/07 00:26:04;;;;;;;0.70;0.70;;;;;;;0.82;100.00;99853.72;4977560;28;20057;-79
2023/03/07 00:28:31;;;;;;;0.85;0.85;;;;;;;0.82;100.00;99862.53;4961202;28;20069;-79
2023/03/07 00:31:02;;;;;;;0.68;0.68;;;;;;;0.79;100.00;99859.28;4992549;28;20022;-79
2023/03/07 00:33:28;;;;;;;0.43;0.43;;;;;;;0.77;100.00;99862.09;4961290;28;20452;-79
2023/03/07 00:36:06;;;;;;;2.38;0.65;;;;;;;0.78;100.00;99850.53;4976879;28;20053;-79
2023/03/07 00:38:36;;;;;;;0.50;0.50;;;;;;;0.74;100.00;99854.44;4977132;28;20036;-79
2023/03/07 00:41:10;;;;;;;0.50;0.50;;;;;;;0.74;100.00;99862.38;4960788;28;20401;-79
2023/03/07 00:43:36;;;;;;;;;;;;;;;0.72;100.00;99858.19;4993422;28;20038;-80
2023/03/07 00:46:02;;;;;;;0.40;0.40;;;;;;;0.70;100.00;99857.47;4961281;28;19909;-79
2023/03/07 00:48:28;;;;;;;0.50;0.50;;;;;;;0.71;100.00;99854.69;4976608;28;20034;-79
2023/03/07 00:50:54;;;;;;;0.50;0.50;;;;;;;0.73;100.00;99858.03;4960458;28;20034;-79
2023/03/07 00:53:23;;;;;;;0.50;0.50;;;;;;;0.71;100.00;99859.13;4992926;28;20042;-79
2023/03/07 00:56:20;;;;;;;0.50;0.50;;;;;;;0.70;100.00;99863.59;4993105;28;20053;-79
2023/03/07 00:58:52;;;;;;;0.40;0.40;;;;;;;0.69;100.00;99856.63;4970374;28;20052;-79
2023/03/07 01:01:21;;;;;;;0.50;0.50;;;;;;;0.65;100.00;99853.41;4958318;28;20053;-79
2023/03/07 01:03:52;;;;;;;0.50;0.50;;;;;;;0.65;100.00;99847.28;4992711;28;20041;-79
2023/03/07 01:06:31;;;;;;;0.40;0.40;;;;;;;0.63;100.00;99844.75;4992916;28;20033;-78
2023/03/07 01:09:03;;;;;;;0.50;0.50;;;;;;;0.63;100.00;99836.81;4992900;28;20052;-79
2023/03/07 01:11:31;;;;;;;0.40;0.40;;;;;;;0.64;100.00;99837.69;4993126;28;20038;-78
2023/03/07 01:14:00;;;;;;;0.40;0.40;;;;;;;0.61;100.00;99822.91;4960428;28;20034;-80
2023/03/07 01:16:33;;;;;;;0.40;0.40;;;;;;;0.60;100.00;99826.53;4945137;28;20050;-79
2023/03/07 01:19:05;;;;;;;0.50;0.50;;;;;;;0.58;100.00;99819.69;4992911;28;20117;-78
2023/03/07 01:21:40;;;;;;;0.50;0.50;;;;;;;0.56;100.00;99825.13;4970498;28;20445;-78
2023/03/07 01:24:07;;;;;;;0.40;0.40;;;;;;;0.53;100.00;99819.25;4961115;28;20039;-78
2023/03/07 01:26:33;;;;;;;0.40;0.40;;;;;;;0.54;100.00;99816.47;4992610;28;20474;-79
2023/03/07 01:29:01;;;;;;;0.50;0.50;;;;;;;0.54;100.00;99819.13;4976712;28;20026;-78
2023/03/07 01:31:29;;;;;;;0.40;0.40;;;;;;;0.56;100.00;99830.41;4960622;28;20381;-79
2023/03/07 01:33:55;;;;;;;0.40;0.40;;;;;;;0.57;100.00;99823.31;4992721;28;20117;-79
2023/03/07 01:36:32;;;;;;;0.50;0.50;;;;;;;0.57;100.00;99836.53;4960030;28;20129;-79
2023/03/07 01:39:01;;;;;;;0.50;0.50;;;;;;;0.50;100.00;99824.81;4992447;28;20036;-78
2023/03/07 01:41:31;;;;;;;0.40;0.40;;;;;;;0.50;100.00;99830.09;4993671;28;20034;-80
2023/03/07 01:44:01;;;;;;;0.45;0.45;;;;;;;0.53;100.00;99835.13;4980272;28;20034;-79
2023/03/07 01:46:36;;;;;;;0.40;0.40;;;;;;;0.52;100.00;99830.81;4964552;28;20053;-78
2023/03/07 01:49:32;;;;;;;0.45;0.45;;;;;;;0.52;100.00;99826.34;4964852;28;20034;-79
2023/03/07 01:52:03;;;;;;;0.40;0.40;;;;;;;0.40;100.00;99808.94;4976355;28;20096;-79
2023/03/07 01:54:34;;;;;;;0.50;0.50;;;;;;;0.51;100.00;99827.34;4964274;28;20084;-79
2023/03/07 01:57:01;;;;;;;0.50;0.50;;;;;;;0.53;100.00;99835.13;4980568;28;20037;-79
2023/03/07 01:59:34;;;;;;;0.50;0.50;;;;;;;0.43;100.00;99820.06;4995740;28;20485;-78
2023/03/07 02:02:04;;;;;;;0.40;0.40;;;;;;;0.53;100.00;99835.97;4996292;28;20076;-79
2023/03/07 02:04:40;;;;;;;0.40;0.40;;;;;;;0.50;100.00;99830.94;4996004;28;20047;-78
2023/03/07 02:07:10;;;;;;;0.40;0.40;;;;;;;0.47;100.00;99822.44;4995784;28;20484;-80
2023/03/07 02:09:39;;;;;;;0.50;0.50;;;;;;;0.53;100.00;99825.41;4949166;28;20200;-80
2023/03/07 02:12:05;;;;;;;0.50;0.50;;;;;;;0.52;100.00;99823.72;4963253;28;20049;-79
2023/03/07 02:14:33;;;;;;;0.40;0.40;;;;;;;0.51;100.00;99822.03;4963835;28;20038;-79
2023/03/07 02:17:00;;;;;;;0.50;0.50;;;;;;;0.50;100.00;99822.16;4979825;28;20061;-80
2023/03/07 02:19:42;;;;;;;0.50;0.50;;;;;;;0.43;100.00;99816.59;4980548;28;20034;-80
2023/03/07 02:22:13;;;;;;;0.50;0.50;;;;;;;0.53;100.00;99829.84;4979735;28;20030;-80
2023/03/07 02:25:07;;;;;;;0.47;0.47;;;;;;;0.55;100.00;99827.91;4979415;28;20034;-80
2023/03/07 02:27:35;;;;;;;0.40;0.40;;;;;;;0.53;100.00;99824.53;4979833;28;20030;-79
2023/03/07 02:30:02;;;;;;;0.40;0.40;;;;;;;0.53;100.00;99828.06;4979757;28;20050;-78
2023/03/07 02:32:28;;;;;;;0.40;0.40;;;;;;;0.54;100.00;99826.22;4995471;28;20037;-78
2023/03/07 02:34:54;;;;;;;0.50;0.50;;;;;;;0.53;100.00;99828.06;4963581;28;20034;-78
2023/03/07 02:37:32;;;;;;;0.40;0.40;;;;;;;0.54;100.00;99823.59;4963734;28;20030;-79
2023/03/07 02:40:01;;;;;;;0.47;0.47;;;;;;;0.52;100.00;99822.88;4995145;28;20041;-79
2023/03/07 02:42:31;;;;;;;0.50;0.50;;;;;;;0.46;100.00;99811.03;4964551;28;20073;-78
2023/03/07 02:45:01;;;;;;;0.40;0.40;;;;;;;0.54;100.00;99823.59;4963340;28;20022;-78
2023/03/07 02:47:30;;;;;;;0.50;0.50;;;;;;;0.50;100.00;99817.72;4963041;28;20504;-78
2023/03/07 02:49:56;;;;;;;0.40;0.40;;;;;;;0.49;100.00;99823.16;4995441;28;20539;-78
2023/03/07 02:52:22;;;;;;;0.40;0.40;;;;;;;0.47;100.00;99827.72;4995886;28;20031;-80
2023/03/07 02:54:48;;;;;;;0.40;0.40;;;;;;;0.46;100.00;99820.78;4995956;28;20148;-79
2023/03/07 02:57:15;;;;;;;0.50;0.50;;;;;;;0.47;100.00;99819.78;4963113;28;20054;-79
2023/03/07 02:59:40;;;;;;;0.50;0.50;;;;;;;0.51;100.00;99827.34;4962926;28;20041;-79
2023/03/07 03:02:06;;;;;;;0.40;0.40;;;;;;;0.51;100.00;99822.03;4996455;28;20393;-78
2023/03/07 03:04:32;;;;;;;0.40;0.40;;;;;;;0.52;100.00;99823.72;4978691;28;20065;-79
2023/03/07 03:06:58;;;;;;;0.50;0.50;;;;;;;0.50;100.00;99824.81;4962887;28;20089;-78
2023/03/07 03:09:24;;;;;;;0.40;0.40;;;;;;;0.50;100.00;99815.06;4963089;28;20388;-79
2023/03/07 03:11:52;;;;;;;0.50;0.50;;;;;;;0.44;100.00;99813.78;4962640;28;20416;-78
2023/03/07 03:14:20;;;;;;;0.50;0.50;;;;;;;0.40;100.00;99807.13;4979112;28;20526;-79
2023/03/07 03:16:45;;;;;;;0.40;0.40;;;;;;;0.41;100.00;99807.94;4963090;28;20133;-78
2023/03/07 03:19:11;;;;;;;0.47;0.47;;;;;;;0.39;100.00;99796.66;4978708;28;20113;-79
2023/03/07 03:21:40;;;;;;;0.50;0.50;;;;;;;0.39;100.00;99791.38;4962206;28;20444;-79
2023/03/07 03:24:09;;;;;;;0.40;0.40;;;;;;;0.41;100.00;99797.38;4994932;28;20049;-79
2023/03/07 03:26:36;;;;;;;0.50;0.50;;;;;;;0.36;100.00;99784.53;4962495;28;20046;-77
2023/03/07 03:29:04;;;;;;;0.40;0.40;;;;;;;0.38;100.00;99792.34;4962378;28;20030;-78
2023/03/07 03:31:30;;;;;;;0.40;0.40;;;;;;;0.39;100.00;99792.19;4978820;28;20030;-78
2023/03/07 03:33:57;;;;;;;0.40;0.40;;;;;;;0.40;100.00;99793.06;4994371;28;20034;-79
2023/03/07 03:36:24;;;;;;;0.50;0.50;;;;;;;0.41;100.00;99792.91;4994201;28;20065;-78
2023/03/07 03:38:54;;;;;;;0.50;0.50;;;;;;;0.35;100.00;99769.66;4978022;28;20432;-79
2023/03/07 03:41:20;;;;;;;0.50;0.50;;;;;;;0.44;100.00;99787.34;4962051;28;20436;-80
2023/03/07 03:43:49;;;;;;;0.40;0.40;;;;;;;0.41;100.00;99773.56;4978205;28;20046;-77
2023/03/07 03:46:18;;;;;;;0.50;0.50;;;;;;;0.40;100.00;99780.69;4977616;28;20026;-78
2023/03/07 03:48:49;;;;;;;0.43;0.43;;;;;;;0.38;100.00;99785.25;4978183;28;20042;-78
2023/03/07 03:51:14;;;;;;;0.40;0.40;;;;;;;0.37;100.00;99788.03;4978491;28;20498;-78
2023/03/07 03:53:41;;;;;;;0.50;0.50;;;;;;;0.37;100.00;99785.38;4961882;28;20130;-78
2023/03/07 03:56:10;;;;;;;0.50;0.50;;;;;;;0.28;100.00;99779.09;4978267;28;20508;-78
2023/03/07 03:58:37;;;;;;;0.50;0.50;;;;;;;0.35;100.00;99788.16;4977897;28;20034;-78
2023/03/07 04:01:06;;;;;;;0.40;0.40;;;;;;;0.37;100.00;99782.72;4993824;28;20045;-78
2023/03/07 04:03:36;;;;;;;0.50;0.50;;;;;;;0.35;100.00;99774.94;4993840;28;20026;-79
2023/03/07 04:06:07;;;;;;;0.40;0.40;;;;;;;0.36;100.00;99773.13;4961261;28;20473;-77
2023/03/07 04:08:33;;;;;;;0.50;0.50;;;;;;;0.32;100.00;99775.22;4977974;28;20145;-78
2023/03/07 04:10:59;;;;;;;0.50;0.50;;;;;;;0.21;100.00;99756.78;4993877;28;20113;-80
2023/03/07 04:13:27;;;;;;;0.50;0.50;;;;;;;0.23;100.00;99768.09;4993335;28;20488;-78
2023/03/07 04:15:53;;;;;;;0.50;0.50;;;;;;;0.20;100.00;99768.34;4960901;28;20046;-78
2023/03/07 04:18:20;;;;;;;0.50;0.50;;;;;;;0.20;100.00;99760.41;4993586;28;20037;-78
2023/03/07 04:20:46;;;;;;;0.40;0.40;;;;;;;0.15;100.00;99757.34;4993332;28;20113;-77
2023/03/07 04:23:12;;;;;;;0.50;0.50;;;;;;;0.15;100.00;99766.09;4961490;28;20366;-77
2023/03/07 04:25:39;;;;;;;0.50;0.50;;;;;;;0.19;100.00;99771.97;4994461;28;20034;-78
2023/03/07 04:28:09;;;;;;;0.50;0.50;;;;;;;0.13;100.00;99765.41;4977271;28;20037;-77
2023/03/07 04:30:35;;;;;;;0.40;0.40;;;;;;;0.13;100.00;99775.13;4961422;28;20034;-78
2023/03/07 04:33:00;;;;;;;0.47;0.47;;;;;;;0.15;100.00;99781.13;4960678;28;20054;-78
2023/03/07 04:35:29;;;;;;;0.50;0.50;;;;;;;0.13;100.00;99791.00;4961528;28;20453;-78
2023/03/07 04:37:57;;;;;;;0.40;0.40;;;;;;;0.12;100.00;99773.47;4977388;28;20026;-81
2023/03/07 04:40:23;;;;;;;0.50;0.50;;;;;;;0.18;100.00;99788.78;4992921;28;20038;-78
2023/03/07 04:42:48;;;;;;;0.50;0.50;;;;;;;0.19;100.00;99783.38;4993051;28;20030;-80
2023/03/07 04:45:17;;;;;;;0.50;0.50;;;;;;;0.18;100.00;99786.97;4961112;28;20042;-80
2023/03/07 04:47:42;;;;;;;0.50;0.50;;;;;;;0.15;100.00;99784.59;4976761;28;20038;-80
2023/03/07 04:50:11;;;;;;;0.40;0.40;;;;;;;0.16;100.00;99788.94;4961203;28;20031;-80
2023/03/07 04:52:37;;;;;;;0.40;0.40;;;;;;;0.18;100.00;99802.00;4977040;28;20038;-78
2023/03/07 04:55:04;;;;;;;0.40;0.40;;;;;;;0.13;100.00;99796.28;4960712;28;20088;-78
2023/03/07 04:57:30;;;;;;;0.40;0.40;;;;;;;0.10;100.00;99796.53;4993002;28;20114;-79
2023/03/07 04:59:56;;;;;;;0.50;0.50;;;;;;;0.09;100.00;99786.97;4960990;28;20128;-79
2023/03/07 05:02:21;;;;;;;0.50;0.50;;;;;;;0.13;100.00;99786.56;4960240;28;20030;-79
2023/03/07 05:04:47;;;;;;;0.50;0.50;;;;;;;0.14;100.00;99779.47;4961060;28;20061;-79
2023/03/07 05:07:12;;;;;;;0.40;0.40;;;;;;;0.13;100.00;99778.63;4960934;28;20488;-79
2023/03/07 05:09:38;;;;;;;0.50;0.50;;;;;;;0.15;100.00;99773.19;4960169;28;20045;-80
2023/03/07 05:12:04;;;;;;;0.43;0.43;;;;;;;0.05;100.00;99753.81;4960559;28;20440;-80
2023/03/07 05:14:31;;;;;;;0.40;0.40;;;;;;;0.13;100.00;99772.50;4976706;28;20088;-78
2023/03/07 05:16:56;;;;;;;0.50;0.50;;;;;;;0.14;100.00;99782.09;4991837;28;20053;-78
2023/03/07 05:19:22;;;;;;;0.50;0.50;;;;;;;0.12;100.00;99776.94;4960517;28;20042;-79
2023/03/07 05:21:48;;;;;;;0.50;0.50;;;;;;;0.10;100.00;99770.94;4976341;28;20038;-79
2023/03/07 05:24:14;;;;;;;0.50;0.50;;;;;;;0.13;100.00;99765.41;4976338;28;20448;-78
2023/03/07 05:26:43;;;;;;;0.50;0.50;;;;;;;0.16;100.00;99774.84;4976664;28;20039;-79
2023/03/07 05:29:08;;;;;;;0.50;0.50;;;;;;;0.16;100.00;99769.56;4976816;28;20522;-78
2023/03/07 05:31:35;;;;;;;0.40;0.40;;;;;;;0.15;100.00;99766.09;4960297;28;20133;-78
2023/03/07 05:34:00;;;;;;;0.50;0.50;;;;;;;0.16;100.00;99770.44;4992884;28;20034;-79
2023/03/07 05:36:27;;;;;;;0.50;0.50;;;;;;;0.15;100.00;99773.19;4992583;28;20369;-79
2023/03/07 05:38:55;;;;;;;0.40;0.40;;;;;;;0.09;100.00;99771.94;4976941;28;20038;-77
2023/03/07 05:41:24;;;;;;;0.50;0.50;;;;;;;0.03;100.00;99785.69;4976209;28;20070;-78
2023/03/07 05:43:50;;;;;;;0.50;0.50;;;;;;;-0.06;100.00;99792.56;4992408;28;20070;-76
2023/03/07 05:46:16;;;;;;;0.50;0.50;;;;;;;-0.08;100.00;99789.25;4960632;28;20128;-79
2023/03/07 05:48:41;;;;;;;0.50;0.50;;;;;;;-0.02;100.00;99793.16;4960632;28;20034;-77
2023/03/07 05:51:07;;;;;;;0.50;0.50;;;;;;;-0.02;100.00;99804.56;4944425;28;20396;-77
2023/03/07 05:53:35;;;;;;;0.50;0.50;;;;;;;-0.05;100.00;99801.38;4960448;28;20034;-78
2023/03/07 05:56:00;;;;;;;0.50;0.50;;;;;;;-0.06;100.00;99802.31;4976484;28;20046;-77
2023/03/07 05:58:26;;;;;;;0.47;0.47;;;;;;;-0.07;100.00;99808.56;4976055;28;20072;-78
2023/03/07 06:00:52;;;;;;;0.40;0.40;;;;;;;-0.07;100.00;99785.63;4975907;28;20457;-79
2023/03/07 06:03:17;;;;;;;0.50;0.50;;;;;;;-0.05;100.00;99794.25;4960525;28;20125;-79
2023/03/07 06:05:44;;;;;;;0.50;0.50;;;;;;;-0.14;100.00;99791.56;4960550;28;20068;-77
2023/03/07 06:08:10;;;;;;;0.50;0.50;;;;;;;-0.15;100.00;99788.09;4976625;28;20042;-77
2023/03/07 06:10:38;;;;;;;0.50;0.50;;;;;;;-0.15;100.00;99788.09;4976422;28;20038;-77
2023/03/07 06:13:04;;;;;;;0.40;0.40;;;;;;;-0.16;100.00;99791.72;4992543;28;20030;-77
2023/03/07 06:15:30;;;;;;;0.50;0.50;;;;;;;-0.22;100.00;99763.16;4960228;28;20030;-78
2023/03/07 06:17:56;;;;;;;0.50;0.50;;;;;;;-0.25;100.00;99760.78;4960403;28;20044;-78
2023/03/07 06:20:22;;;;;;;0.50;0.50;;;;;;;-0.17;100.00;99763.59;4975949;28;20030;-78
2023/03/07 06:22:48;;;;;;;0.40;0.40;;;;;;;-0.21;100.00;99759.56;4960364;28;20026;-77
2023/03/07 06:25:15;;;;;;;0.50;0.50;;;;;;;-0.28;100.00;99747.84;4959953;28;20436;-78
2023/03/07 06:27:41;;;;;;;0.50;0.50;;;;;;;-0.24;100.00;99765.09;4976848;28;20392;-78
2023/03/07 06:30:08;;;;;;;0.40;0.40;;;;;;;-0.26;100.00;99759.94;4963642;28;20499;-78
2023/03/07 06:32:34;;;;;;;0.50;0.50;;;;;;;-0.27;100.00;99755.59;4996636;28;20441;-78
2023/03/07 06:35:00;;;;;;;0.50;0.50;;;;;;;-0.25;100.00;99758.13;4979127;28;20105;-77
2023/03/07 06:37:26;;;;;;;0.50;0.50;;;;;;;-0.34;100.00;99748.38;4979268;28;20045;-78
2023/03/07 06:39:54;;;;;;;0.50;0.50;;;;;;;-0.37;100.00;99753.88;4979143;28;20473;-78
2023/03/07 06:42:20;;;;;;;0.40;0.40;;;;;;;-0.41;100.00;99765.69;4963340;28;20096;-78
2023/03/07 06:44:46;;;;;;;0.50;0.50;;;;;;;-0.40;100.00;99762.06;4963278;28;20030;-78
2023/03/07 06:47:11;;;;;;;0.50;0.50;;;;;;;-0.33;100.00;99769.34;4978898;28;20029;-78
2023/03/07 06:49:37;;;;;;;0.50;0.50;;;;;;;-0.37;100.00;99772.38;4963448;28;20038;-80
2023/03/07 06:52:03;;;;;;;0.43;0.43;;;;;;;-0.40;100.00;99773.47;4995244;28;20030;-77
2023/03/07 06:54:29;;;;;;;0.40;0.40;;;;;;;-0.43;100.00;99763.16;4978946;28;20441;-77
2023/03/07 06:56:54;;;;;;;0.40;0.40;;;;;;;-0.43;100.00;99763.16;4963416;28;20050;-80
2023/03/07 06:59:20;;;;;;;0.50;0.50;;;;;;;-0.43;100.00;99762.34;4963428;28;20034;-79
2023/03/07 07:01:47;;;;;;;0.45;0.45;;;;;;;-0.39;100.00;99763.78;4979115;28;20057;-79
2023/03/07 07:04:13;;;;;;;0.47;0.47;;;;;;;-0.48;100.00;99752.16;4995069;28;20477;-79
2023/03/07 07:06:39;;;;;;;0.50;0.50;;;;;;;-0.57;100.00;99751.13;4995041;28;20026;-79
2023/03/07 07:09:05;;;;;;;0.50;0.50;;;;;;;-0.68;100.00;99759.13;4962913;28;20030;-79
2023/03/07 07:11:30;;;;;;;1.35;1.35;;;;;;;-0.80;100.00;99766.25;4963020;28;20054;-79
2023/03/07 07:13:56;;;;;;;0.50;0.50;;;;;;;-0.98;100.00;99766.00;4962904;28;20176;-79
2023/03/07 07:16:22;;;;;;;0.50;0.50;;;;;;;-1.24;100.00;99741.75;4963002;28;20062;-79
2023/03/07 07:18:51;;;;;;;0.70;0.70;;;;;;;-1.18;100.00;99756.22;4978877;28;20477;-77
2023/03/07 07:21:16;;;;;;;0.50;0.50;;;;;;;-1.17;100.00;99764.00;4978393;28;20378;-79
2023/03/07 07:23:45;;;;;;;0.50;0.50;;;;;;;-1.11;100.00;99767.97;4978865;28;20029;-79
2023/03/07 07:26:11;;;;;;;0.50;0.50;;;;;;;-1.06;100.00;99772.84;4995021;28;20037;-81
2023/03/07 07:28:36;;;;;;;0.50;0.50;;;;;;;-0.96;100.00;99777.25;4962799;28;20476;-79
2023/03/07 07:31:02;;;;;;;0.50;0.50;;;;;;;-0.91;100.00;99780.34;4962726;28;20030;-79
2023/03/07 07:33:29;;;;;;;0.40;0.40;;;;;;;-0.84;100.00;99777.22;4978633;28;20026;-79
2023/03/07 07:35:55;;;;;;;0.50;0.50;;;;;;;-0.82;100.00;99772.63;4994361;28;20105;-79
2023/03/07 07:38:21;;;;;;;0.50;0.50;;;;;;;-0.80;100.00;99778.63;4962552;28;20145;-78
2023/03/07 07:40:47;;;;;;;0.50;0.50;;;;;;;-0.80;100.00;99781.25;4961923;28;20109;-79
2023/03/07 07:43:16;;;;;;;0.50;0.50;;;;;;;-0.81;100.00;99779.59;4994452;28;20044;-79
2023/03/07 07:45:42;;;;;;;0.50;0.50;;;;;;;-0.77;100.00;99789.75;4946558;28;20120;-79
2023/03/07 07:48:08;;;;;;;0.50;0.50;;;;;;;-0.71;100.00;99791.06;4962291;28;20428;-79
2023/03/07 07:50:36;;;;;;;0.50;0.50;;;;;;;-0.58;100.00;99796.13;4978304;28;20053;-80
2023/03/07 07:53:02;;;;;;;0.50;0.50;;;;;;;-0.53;100.00;99784.25;4962759;28;20126;-79
2023/03/07 07:55:29;;;;;;;0.50;0.50;;;;;;;-0.46;100.00;99793.31;4994373;28;20050;-80
2023/03/07 07:57:54;;;;;;;0.50;0.50;;;;;;;-0.41;100.00;99792.94;4977909;28;20073;-78
2023/03/07 08:00:20;;;;;;;0.50;0.50;;;;;;;-0.37;100.00;99785.59;4977956;28;20502;-79
2023/03/07 08:02:49;;;;;;;0.50;0.50;;;;;;;-0.35;100.00;99797.69;4977802;28;20085;-79
2023/03/07 08:05:16;;;;;;;0.50;0.50;;;;;;;-0.25;100.00;99789.84;4977717;28;20030;-79
2023/03/07 08:07:42;;;;;;;0.50;0.50;;;;;;;-0.19;100.00;99785.84;4977676;28;20030;-78
2023/03/07 08:10:09;;;;;;;0.98;0.98;;;;;;;-0.01;100.00;99789.53;4977956;28;20121;-79
2023/03/07 08:12:35;;;;;;;0.50;0.50;;;;;;;0.10;100.00;99784.16;4977591;28;20086;-79
2023/03/07 08:15:00;;;;;;;1.42;1.35;;;;;;;0.22;100.00;99779.63;4961949;28;20034;-79
2023/03/07 08:17:28;;;;;;;0.50;0.50;;;;;;;0.28;100.00;99783.56;4961819;28;20046;-79
2023/03/07 08:19:53;;;;;;;0.50;0.50;;;;;;;0.29;100.00;99788.72;4993792;28;20026;-78
2023/03/07 08:22:19;;;;;;;0.50;0.50;;;;;;;0.30;100.00;99798.31;4961515;28;20084;-77
2023/03/07 08:24:45;;;;;;;0.50;0.50;;;;;;;0.36;100.00;99803.06;4961422;28;20500;-78
2023/03/07 08:27:11;;;;;;;0.50;0.50;;;;;;;0.43;100.00;99793.63;4977460;28;20092;-79
2023/03/07 08:29:37;;;;;;;0.50;0.50;;;;;;;0.59;100.00;99797.56;4960978;28;20045;-78
2023/03/07 08:32:02;;;;;;;0.60;0.60;;;;;;;0.76;100.00;99799.53;4977046;28;20114;-79
2023/03/07 08:34:31;;;;;;;0.50;0.50;;;;;;;0.95;100.00;99796.09;4961495;28;20477;-79
2023/03/07 08:36:56;;;;;;;0.60;0.60;;;;;;;1.19;100.00;99803.66;4961044;28;20042;-79
2023/03/07 08:39:22;;;;;;;0.50;0.50;;;;;;;1.38;100.00;99804.63;4977521;28;20113;-79
2023/03/07 08:41:48;;;;;;;0.50;0.50;;;;;;;1.51;100.00;99807.81;4961234;28;20034;-79
2023/03/07 08:44:13;;;;;;;0.65;0.65;;;;;;;1.65;100.00;99806.56;4961302;28;20050;-79
2023/03/07 08:46:39;;;;;;;0.70;0.70;;;;;;;1.76;100.00;99811.69;4961373;28;20043;-79
2023/03/07 08:49:04;;;;;;;0.70;0.70;;;;;;;1.86;100.00;99815.16;4961116;28;20038;-78
2023/03/07 08:51:30;;;;;;;0.50;0.50;;;;;;;2.07;100.00;99819.44;4959982;28;20030;-79
2023/03/07 08:54:06;;;;;;;0.60;0.60;;;;;;;2.55;100.00;99815.75;4976749;28;20048;-78
2023/03/07 08:56:32;;;;;;;0.98;0.98;;;;;;;3.00;100.00;99820.25;4976609;28;20461;-78
2023/03/07 08:58:58;;;;;;;0.60;0.60;;;;;;;3.24;100.00;99811.69;4993174;28;20145;-78
2023/03/07 09:01:23;;;;;;;0.50;0.50;;;;;;;3.33;100.00;99810.75;4994335;28;20030;-78
2023/03/07 09:03:49;;;;;;;0.75;0.75;;;;;;;3.15;100.00;99801.94;4993187;28;20041;-79
2023/03/07 09:06:20;;;;;;;0.85;0.60;;;;;;;3.02;100.00;99808.47;4961257;28;20034;-79
2023/03/07 09:08:46;;;;;;;0.50;0.50;;;;;;;2.83;100.00;99793.53;4945452;28;20042;-78
2023/03/07 09:11:12;;;;;;;0.60;0.60;;;;;;;2.68;100.00;99781.72;4977054;28;20472;-77
2023/03/07 09:13:38;;;;;;;0.50;0.50;;;;;;;2.60;100.00;99790.44;4976880;28;20031;-77
2023/03/07 09:16:05;;;;;;;0.50;0.50;;;;;;;2.65;100.00;99803.28;4993087;28;20033;-78
2023/03/07 09:18:31;;;;;;;2.47;1.13;;;;;;;2.71;100.00;99801.84;4961070;28;20121;-78
2023/03/07 09:21:01;;;;;;;0.65;0.65;;;;;;;2.78;100.00;99800.22;4992455;28;20141;-79
2023/03/07 09:23:27;;;;;;;0.73;0.73;;;;;;;2.85;100.00;99802.16;4976779;28;20523;-79
2023/03/07 09:25:52;;;;;;;0.50;0.50;;;;;;;2.96;100.00;99793.13;4992813;28;20113;-78
2023/03/07 09:28:18;;;;;;;0.50;0.50;;;;;;;3.40;100.00;99811.81;4992125;28;20034;-78
2023/03/07 09:30:45;;;;;;;0.50;0.50;;;;;;;3.84;100.00;99809.19;4976372;28;20042;-78
2023/03/07 09:33:11;;;;;;;1.77;0.93;;;;;;;4.65;100.00;99809.75;4993507;28;20080;-78
2023/03/07 09:35:39;;;;;;;1.38;0.95;;;;;;;5.07;100.00;99815.03;4976894;28;20137;-78
2023/03/07 09:38:05;;;;;;;0.60;0.60;;;;;;;4.78;100.00;99813.63;4976658;28;20034;-78
2023/03/07 09:40:31;;;;;;;0.70;0.70;;;;;;;4.56;100.00;99804.41;4992224;28;20030;-79
2023/03/07 09:43:09;;;;;;;1.10;0.60;;;;;;;4.50;100.00;99804.19;4976364;28;20038;-79
2023/03/07 09:46:19;;;;;;;0.70;0.70;;;;;;;4.42;100.00;99810.34;4960212;28;20034;-79
2023/03/07 09:49:15;;;;;;;0.52;0.52;;;;;;;4.22;100.00;99806.25;4917582;29;20038;-78
2023/03/07 09:51:41;;;;;;;1.50;0.80;;;;;;;3.87;100.00;99802.72;4993779;28;20053;-79
2023/03/07 09:54:11;;;;;;;2.17;0.82;;;;;;;3.68;100.00;99806.41;4976734;28;20113;-81
2023/03/07 09:56:54;;;;;;;1.13;0.80;;;;;;;3.47;100.00;99796.13;4997119;28;20062;-79
2023/03/07 09:59:33;;;;;;;1.58;0.77;;;;;;;3.32;100.00;99794.97;4994169;28;20030;-78
2023/03/07 10:02:38;;;;;;;1.20;0.95;;;;;;;3.35;100.00;99797.31;4992545;28;20058;-78
2023/03/07 10:05:09;;;;;;;0.60;0.60;;;;;;;3.42;100.00;99801.88;4996458;28;20030;-78
2023/03/07 10:07:35;;;;;;;0.63;0.63;;;;;;;3.58;100.00;99803.00;4996444;28;20066;-79
2023/03/07 10:10:04;;;;;;;0.63;0.63;;;;;;;3.85;100.00;99800.19;4996003;28;20069;-77
2023/03/07 10:12:33;;;;;;;1.27;0.98;;;;;;;3.93;100.00;99792.28;4995941;28;20030;-78
2023/03/07 10:15:19;;;;;;;0.98;0.90;;;;;;;4.06;100.00;99799.00;4996239;28;20045;-78
2023/03/07 10:17:58;;;;;;;1.42;0.70;;;;;;;4.27;100.00;99796.78;4995488;28;20548;-78
2023/03/07 10:20:30;;;;;;;3.75;0.90;;;;;;;4.65;100.00;99786.63;4996124;28;20033;-78
2023/03/07 10:23:18;;;;;;;0.75;0.75;;;;;;;4.96;100.00;99791.38;4995786;28;20034;-79
2023/03/07 10:25:52;;;;;;;1.67;0.80;;;;;;;5.34;100.00;99789.09;4994492;28;20034;-78
2023/03/07 10:28:30;;;;;;;1.48;0.95;;;;;;;5.90;100.00;99787.41;4979527;28;20027;-78
2023/03/07 10:30:58;;;;;;;1.95;0.90;;;;;;;6.38;100.00;99772.31;4995544;28;20066;-79
2023/03/07 10:33:24;;;;;;;0.70;0.70;;;;;;;6.86;100.00;99783.75;4995799;28;20026;-78
2023/03/07 10:35:56;;;;;;;0.68;0.68;;;;;;;5.98;100.00;99790.09;4995427;28;20034;-78
2023/03/07 10:38:32;;;;;;;0.93;0.65;;;;;;;4.93;100.00;99781.06;4995511;28;20033;-78
2023/03/07 10:41:27;;;;;;;2.58;0.80;;;;;;;4.49;100.00;99798.06;4978939;28;20026;-78
2023/03/07 10:43:53;;;;;;;0.80;0.80;;;;;;;4.52;100.00;99788.91;4977653;28;20113;-78
2023/03/07 10:46:22;;;;;;;1.27;0.98;;;;;;;5.24;100.00;99782.09;4963269;28;20495;-78
2023/03/07 10:48:51;;;;;;;1.25;1.15;;;;;;;5.92;100.00;99802.22;4994901;28;20030;-78
2023/03/07 10:51:23;;;;;;;1.50;1.27;;;;;;;7.72;99.47;99808.53;4979247;28;20045;-78
2023/03/07 10:53:49;;;;;;;1.08;1.00;;;;;;;10.17;87.86;99798.22;4995189;28;20037;-79
2023/03/07 10:56:17;;;;;;;3.15;1.20;;;;;;;11.59;78.56;99794.81;4979352;28;20038;-78
2023/03/07 10:58:59;;;;;;;0.98;0.90;;;;;;;11.60;73.79;99791.09;4995300;28;20034;-80
2023/03/07 11:01:26;;;;;;;1.38;0.80;;;;;;;10.97;77.32;99789.53;4996108;28;20038;-79
2023/03/07 11:04:27;;;;;;;2.85;1.10;;;;;;;10.24;82.19;99796.38;4979165;28;20457;-79
2023/03/07 11:06:58;;;;;;;1.50;1.00;;;;;;;10.34;79.85;99786.13;4983460;28;20065;-79
2023/03/07 11:09:27;;;;;;;1.73;1.23;;;;;;;11.10;80.92;99796.00;4994841;28;20045;-79
2023/03/07 11:11:56;;;;;;;1.52;0.80;;;;;;;10.25;79.10;99787.31;4994908;28;20034;-79
2023/03/07 11:14:23;;;;;;;0.60;0.60;;;;;;;9.27;83.56;99775.59;4962014;28;20132;-79
2023/03/07 11:16:52;;;;;;;0.70;0.60;;;;;;;8.44;89.18;99794.63;4994862;28;20029;-78
2023/03/07 11:19:30;;;;;;;0.77;0.73;;;;;;;8.04;90.86;99793.19;4995811;28;20041;-79
2023/03/07 11:21:57;;;;;;;0.60;0.60;;;;;;;8.41;93.19;99781.59;4994774;28;20366;-79
2023/03/07 11:24:27;;;;;;;0.73;0.70;;;;;;;7.89;91.32;99794.00;4995081;28;20022;-79
2023/03/07 11:26:55;;;;;;;0.73;0.73;;;;;;;10.12;80.84;99780.81;4994864;28;20469;-79
2023/03/07 11:29:21;;;;;;;4.45;1.38;;;;;;;11.44;77.47;99777.00;4978705;28;20038;-78
2023/03/07 11:32:12;;;;;;;1.30;1.20;;;;;;;11.93;75.34;99780.34;4994761;28;20392;-79
2023/03/07 11:35:05;;;;;;;0.63;0.63;;;;;;;12.90;74.86;99783.19;4978323;28;20481;-79
2023/03/07 11:37:33;;;;;;;;;;;;;;;12.46;71.35;99774.03;4994855;28;20034;-78
2023/03/07 11:40:07;;;;;;;1.23;1.13;;;;;;;13.17;71.46;99768.50;4978363;28;19980;-78